Cynthiana, IN

2:37 AM CST on February 27, 2015 (GMT -0600)
Carmi Municipal | Change Station
CLOSE
Current Station
Airport
Location: Carmi,
Elevation: 387 ft
Nearby Weather Stations

Elev 387 ft 38.09 °N, 88.12 °W | Updated 22 minutes ago

Overcast
Overcast
19 °F
Feels Like 6 °F
N
14
Wind Variable Wind from NW

Today
High -- | Low -- °F
--% Chance of Precip.
Yesterday
High -- | Low -- °F
Precip. -- in
6:25 AM 5:41 PM
Waxing Gibbous, 67% visible
Pressure 30.50 in
Visibility 4.0 miles
Clouds Overcast 1200 ft
Windchill 6 °F
Dew Point 17 °F
Humidity 91%
Rainfall 0.00 in
Snow Depth Not available.
UV 0 out of 12
Pollen .60 out of 12
Air Quality Not available.
Flu Activity Not available.
METAR KCUL 270815Z AUTO 32012KT 4SM -SN OVC012 M07/M08 A3050 RMK AO2 T10721085

More Conditions Fewer Conditions

Pressure 30.50 in
Visibility 4.0 miles
Clouds Overcast 1200 ft
Windchill 6 °F
Dew Point 17 °F
Humidity 91%
Rainfall 0.00 in
Snow Depth Not available.
UV 0 out of 12
Pollen .60 out of 12
Air Quality Not available.
Flu Activity Not available.
METAR KCUL 270815Z AUTO 32012KT 4SM -SN OVC012 M07/M08 A3050 RMK AO2 T10721085

More Conditions Fewer Conditions

10-Day Weather Forecast

Almanac

Astronomy

Feb. 27, 2015 Rise Set
Actual Time
Civil Twilight
Nautical Twilight
Astronomical Twilight
Moon
Length of Visible Light
Length of Day
Tomorrow will be .
, % of the Moon is Illuminated

Today's Extremes

State Highs State Lows

Community

WunderPhotos

Upload Photos

1,800,649 photos uploaded!

WunderBlogs® & News

Nearby

Air Quality

  Air Quality AQ Index Pollutant
Not available.

Snow Depth

Station Depth Elevation

Earthquake Activity

City Distance Mag. Time & Date
Minimum magnitude displayed is 2.5.

Coastal Water Temperatures

Place Temperature

Nearby Weather Stations